Ce_breeze — ELSQ7 — position and weather

sailwx.info

Track history (hours):
 
Tides and Currents Weather Stations Pressure Air Temp Water Temp Dewpoint Dewpoint Depression Visibility Wind Speed Wind Dir Waves Ship Positions

Ce_breeze

Last reported at 2014-Nov-13 18:32 UTC. Time now 2014-Nov-23 21:13 UTC.
Position N 35°21' E 027°41'.
Warning: this ship's position is 10 days out of date.

Length 240 m; draft 8 m.

Type: Tanker. MMSI: 636010400.

Date/timePositionNaut miles runAvg speedWind from/ knotsBaromVisibWave heightAir tempDewpointWater temp
2014-Nov-13 18:32N 35°21' E 027°41'7114.3
2014-Nov-13 13:33N 35°26' E 026°14'1514.9
2014-Nov-13 12:33N 35°28' E 025°56'1515.1
2014-Nov-13 11:33N 35°31' E 025°38'1515.0
2014-Nov-13 10:33N 35°35' E 025°20'1515.0
2014-Nov-13 09:33N 35°39' E 025°02'1515.0
2014-Nov-13 08:33N 35°43' E 024°44'1514.6
2014-Nov-13 07:33N 35°47' E 024°27'1514.6
2014-Nov-13 06:33N 35°51' E 024°10'1514.9
2014-Nov-13 05:34N 35°54' E 023°52'1514.7
2014-Nov-13 04:33N 35°58' E 023°34'  
2014-Nov-04 18:23N 35°60' E 024°09'1012.3
2014-Nov-04 17:33N 35°59' E 024°21'1212.5
2014-Nov-04 16:33N 35°58' E 024°36'1312.6
2014-Nov-04 15:33N 35°55' E 024°52'1312.6
2014-Nov-04 14:33N 35°51' E 025°06'1312.6
2014-Nov-04 13:33N 35°47' E 025°21'1212.3
2014-Nov-04 12:33N 35°45' E 025°36'1212.4
2014-Nov-04 11:33N 35°42' E 025°51'  
Track history (hours):
 
Tides and Currents Weather Stations Pressure Air Temp Water Temp Dewpoint Dewpoint Depression Visibility Wind Speed Wind Dir Waves Ship Positions

Ce_breeze

Last reported at 2014-Nov-13 18:32 UTC. Time now 2014-Nov-23 21:13 UTC.
Position N 35°21' E 027°41'.
Warning: this ship's position is 10 days out of date.

Length 240 m; draft 8 m.

Type: Tanker. MMSI: 636010400.

Date/timePositionNaut miles runAvg speedWind from/ knotsBaromVisibWave heightAir tempDewpointWater temp
2014-Nov-13 18:32N 35°21' E 027°41'7114.3
2014-Nov-13 13:33N 35°26' E 026°14'1514.9
2014-Nov-13 12:33N 35°28' E 025°56'1515.1
2014-Nov-13 11:33N 35°31' E 025°38'1515.0
2014-Nov-13 10:33N 35°35' E 025°20'1515.0
2014-Nov-13 09:33N 35°39' E 025°02'1515.0
2014-Nov-13 08:33N 35°43' E 024°44'1514.6
2014-Nov-13 07:33N 35°47' E 024°27'1514.6
2014-Nov-13 06:33N 35°51' E 024°10'1514.9
2014-Nov-13 05:34N 35°54' E 023°52'1514.7
2014-Nov-13 04:33N 35°58' E 023°34'  
2014-Nov-04 18:23N 35°60' E 024°09'1012.3
2014-Nov-04 17:33N 35°59' E 024°21'1212.5
2014-Nov-04 16:33N 35°58' E 024°36'1312.6
2014-Nov-04 15:33N 35°55' E 024°52'1312.6
2014-Nov-04 14:33N 35°51' E 025°06'1312.6
2014-Nov-04 13:33N 35°47' E 025°21'1212.3
2014-Nov-04 12:33N 35°45' E 025°36'1212.4
2014-Nov-04 11:33N 35°42' E 025°51'  

Dump ship's entire track history